logo
Search for airport 
image banner adimage banner adimage banner ad
image banner ad

EYVP - Paluknys

Located in Vilnius, Lithuania

ICAO - EYVP, IATA -

Data provided by Airmate  

General information

Coordinates: N54°28'59" E24°59'32"
Elevation is 466 feet MSL.
Magnetic variation is 8° East
Rated:
View ratings:
[VIEW]
View others Airports in Vilnius County

Operational data

Special qualification required
Current time UTC:
Current local time:
Weather at : EYVI - Vilnius/International ( 26 km )
METAR: EYVI 282020Z 12005KT CAVOK 18/10 Q1018 NOSIG
View NOTAMs / SUP AIP / TFR affecting this airport [VIEW]
Communications frequencies: [VIEW]

Runways:

RWY identifierQFULength (ft)Width (ft)SurfaceLDA (ft)
18186°2133164GRASS
362133164GRASS
0444°1969328GRASS
22224°1969328GRASS

Airport contact information

Address: Vilnius Lithuania

Other aviation service providers

Flight schools

Aeronautika

Aeronautika
info@aeronautika.lt+37062666766
+37062666766

Aviation club (not for profit)

Vilniaus Aeroklubas

Vilniaus Aeroklubas
aeroklubas@sklandymas.lt+37063302222
+37063302222
Rated:
View ratings:
[VIEW]

Satellite view of EYVP